Flight Track Log - Related Links

Times and Time Zones

All times are in EST time to prevent confusion due to time zone crossing. See the SWA3764 flight status page for this flight to view local times or setup timezone preferences in your user account.

Time Position Orientation Groundspeed Altitude Reporting Facility
EST Latitude Longitude Course Direction KTS MPH feet Rate Location/Type
Sun 10:39:48 PM 30.0194 -90.3097 317° Northwest 189 217 1,600  Level Houston Center
Sun 10:40:12 PM 30.0339 -90.3219 324° Northwest 198 228 2,400 2,400 Climbing Houston Center
Sun 10:41:13 PM 30.0839 -90.3647 323° Northwest 209 241 5,000 3,122 Climbing Houston Center
Sun 10:42:15 PM 30.1467 -90.4147 325° Northwest 246 283 8,800 2,927 Climbing Houston Center
Sun 10:43:16 PM 30.1972 -90.4786 312° West 266 306 11,000 2,066 Climbing Houston Center
Sun 10:44:17 PM 30.2636 -90.5589 314° West 339 390 13,000 2,213 Climbing Houston Center
Sun 10:45:18 PM 30.3331 -90.6411 314° West 354 407 15,500 2,607 Climbing Houston Center
Sun 10:46:19 PM 30.4219 -90.7417 316° Northwest 369 425 18,300 2,656 Climbing Houston Center
Sun 10:47:20 PM 30.4817 -90.8406 305° West 374 430 20,900 2,976 Climbing Houston Center
Sun 10:48:22 PM 30.5364 -90.9267 306° West 330 380 24,400 2,049 Climbing Houston Center
Sun 10:49:23 PM 30.5836 -91.0211 300° West 339 390 25,100 1,623 Climbing Houston Center
Sun 10:50:24 PM 30.6261 -91.1256 295° West 358 412 27,700 2,361 Climbing Houston Center
Sun 10:51:25 PM 30.6636 -91.2153 296° West 313 360 29,900 1,279 Climbing Houston Center
Sun 10:52:26 PM 30.7036 -91.3106 296° West 326 375 30,300 787 Climbing Houston Center
Sun 10:53:27 PM 30.7511 -91.4172 297° West 351 404 31,500 1,820 Climbing Houston Center
Sun 10:54:28 PM 30.7928 -91.5147 296° West 338 389 34,000 1,967 Climbing Houston Center
Sun 10:55:29 PM 30.8308 -91.6042 296° West 311 358 35,500 984 Climbing Houston Center
Sun 10:56:30 PM 30.8694 -91.6947 296° West 312 359 36,000 246 Climbing Houston Center
Sun 10:57:31 PM 30.9083 -91.7864 296° West 316 364 36,000  Level Houston Center
Sun 10:58:32 PM 30.9467 -91.8778 296° West 314 361 36,000  Level Houston Center
Sun 10:59:33 PM 30.9853 -91.9683 296° West 314 361 36,000  Level Houston Center
Sun 11:00:34 PM 31.0236 -92.0622 295° West 309 356 36,000  Level Houston Center
Sun 11:01:36 PM 31.0597 -92.1533 295° West 311 358 36,000  Level Houston Center
Sun 11:02:37 PM 31.0947 -92.2444 294° West 309 356 36,000  Level Houston Center
Sun 11:03:38 PM 31.1367 -92.3539 294° West 308 354 36,000  Level Houston Center
Sun 11:04:39 PM 31.1700 -92.4447 293° West 307 353 36,000  Level Houston Center
Sun 11:05:40 PM 31.2050 -92.5361 294° West 309 356 36,000  Level Houston Center
Sun 11:06:41 PM 31.2392 -92.6278 294° West 309 356 36,000  Level Houston Center
Sun 11:07:42 PM 31.2742 -92.7200 294° West 309 356 36,000  Level Houston Center
Sun 11:08:43 PM 31.3086 -92.8103 294° West 306 352 36,000  Level Houston Center
Sun 11:09:44 PM 31.3422 -92.9017 293° West 306 352 36,000  Level Houston Center
Sun 11:10:45 PM 31.3769 -92.9919 294° West 305 351 36,000  Level Houston Center
Sun 11:11:46 PM 31.4106 -93.0839 293° West 308 354 36,000  Level Houston Center
Sun 11:12:47 PM 31.4442 -93.1750 293° West 307 353 36,000  Level Houston Center
Sun 11:13:48 PM 31.4842 -93.2847 293° West 306 352 36,000  Level Houston Center
Sun 11:14:49 PM 31.5144 -93.3656 294° West 307 353 36,000  Level Houston Center
Sun 11:15:50 PM 31.5486 -93.4564 294° West 306 352 36,000  Level Houston Center
Sun 11:16:51 PM 31.5822 -93.5478 293° West 306 352 36,000  Level Houston Center
Sun 11:17:52 PM 31.6203 -93.6492 294° West 306 352 36,000  Level Houston Center
Sun 11:18:53 PM 31.6528 -93.7408 293° West 306 352 36,000  Level Houston Center
Sun 11:19:54 PM 31.6858 -93.8308 293° West 303 349 36,000  Level Houston Center
Sun 11:20:55 PM 31.7186 -93.9214 293° West 302 348 36,000  Level Houston Center
Sun 11:21:55 PM 31.7511 -94.0119 293° West 302 348 36,000  Level Houston Center
Sun 11:22:56 PM 31.7847 -94.1047 293° West 306 352 36,000  Level Houston Center
Sun 11:23:57 PM 31.8206 -94.2033 293° West 302 348 36,000  Level Houston Center
Sun 11:24:58 PM 31.8569 -94.3056 293° West 306 352 36,000  Level Houston Center
Sun 11:25:59 PM 31.8906 -94.3972 293° West 306 352 36,000  Level Houston Center
Sun 11:26:30 PM 31.9044 -94.4344 294° West 308 354 36,000  Level Fort Worth Center
Sun 11:27:31 PM 31.9375 -94.5267 293° West 308 354 36,000  Level Fort Worth Center
Sun 11:28:32 PM 31.9694 -94.6197 292° West 308 354 36,000  Level Fort Worth Center
Sun 11:29:33 PM 32.0028 -94.7119 293° West 307 353 36,000  Level Fort Worth Center
Sun 11:30:34 PM 32.0417 -94.8233 292° West 309 356 36,000  Level Fort Worth Center
Sun 11:31:35 PM 32.0739 -94.9161 292° West 308 354 36,000  Level Fort Worth Center
Sun 11:32:35 PM 32.1061 -95.0069 293° West 301 346 36,000 -99 Level Fort Worth Center
Sun 11:33:36 PM 32.1381 -95.0972 293° West 299 344 35,800 -590 Descending Fort Worth Center
Sun 11:34:37 PM 32.1711 -95.1906 293° West 306 352 34,800 -1,131 Descending Fort Worth Center
Sun 11:35:38 PM 32.2025 -95.2847 292° West 309 356 33,500 -2,213 Descending Fort Worth Center
Sun 11:36:39 PM 32.2381 -95.3833 293° West 315 362 30,300 -3,148 Descending Fort Worth Center
Sun 11:37:40 PM 32.2747 -95.4917 292° West 351 404 27,100 -2,902 Descending Fort Worth Center
Sun 11:38:41 PM 32.3131 -95.6025 292° West 364 419 24,400 -2,607 Descending Fort Worth Center
Sun 11:39:42 PM 32.3506 -95.7111 292° West 357 411 21,800 -2,557 Descending Fort Worth Center
Sun 11:40:43 PM 32.3861 -95.8189 291° West 355 409 19,200 -2,727 Descending Fort Worth Center
Sun 11:41:43 PM 32.4297 -95.9419 293° West 376 433 16,300 -2,826 Descending Fort Worth Center
Sun 11:42:44 PM 32.4700 -96.0611 292° West 365 420 13,500 -2,557 Descending Fort Worth Center
Sun 11:43:45 PM 32.5056 -96.1644 292° West 344 396 11,100 -1,623 Descending Fort Worth Center
Sun 11:44:46 PM 32.5369 -96.2586 292° West 313 360 10,200 -541 Descending Fort Worth Center
Sun 11:45:47 PM 32.5692 -96.3436 294° West 289 333 10,000 -149 Descending Fort Worth Center
Sun 11:46:47 PM 32.6169 -96.4258 305° West 305 351 9,900 -446 Descending Fort Worth Center
Sun 11:47:48 PM 32.6578 -96.4969 304° West 262 302 9,100 -885 Descending Fort Worth Center
Sun 11:48:49 PM 32.7089 -96.5550 316° Northwest 259 298 8,100 -1,033 Descending Fort Worth Center
Sun 11:49:50 PM 32.7683 -96.6083 323° Northwest 251 289 7,000 -1,537 Descending Fort Worth Center
Sun 11:50:50 PM 32.8244 -96.6606 322° Northwest 256 295 5,000 -1,686 Descending Fort Worth Center
Sun 11:51:51 PM 32.8822 -96.7133 323° Northwest 259 298 3,600 -1,319 Descending Fort Worth Center
Sun 11:52:21 PM 32.9167 -96.7333 334° Northwest 250 288 3,000 -571 Descending Dallas / Fort Worth TRACON
Sun 11:53:15 PM 32.9333 -96.8000 287° West 220 253 2,800 -500 Descending Dallas / Fort Worth TRACON
Sun 11:54:21 PM 32.9167 -96.8667 253° West 176 203 2,000 -714 Descending Dallas / Fort Worth TRACON
Sun 11:55:21 PM 32.8833 -96.8833 203° Southwest 143 165 1,300 -588 Descending Dallas / Fort Worth TRACON
Sun 11:56:54 PM 32.8311 -96.8383 144° Southeast 151 174 500 -516 Descending Fort Worth Center
Sun 11:58:00 PM 32.8333 -96.8500 207° Southwest  Level FlightAware Approximate

Login

Don't have an account? Register now (free) for customized features, flight alerts, and more!